CHP51 KFUL-KFUL
Flight info
| Callsign | CHP51 |
|---|---|
| Flight time | 2h 14m |
| Altitude | 3000 |
| Route | SLI |
| Aircraft | C208/L-SDFGR/C |
Departure
| Time | 2026-04-25 06:40 |
|---|---|
| Airport | Fullerton Municipal Airport (KFUL) |
Arrival
| Time | 2026-04-25 08:55 |
|---|---|
| Airport | Fullerton Municipal Airport (KFUL) |
| Time | Latitude | Longitude | Altitude | Speed | Heading |
|---|---|---|---|---|---|
| 2026-04-25 06:37 | 33.87202 | -117.98398 | 92 ft | 0 kts | 109° |
| 2026-04-25 06:37 | 33.87195 | -117.98378 | 90 ft | 7 kts | 93° |
| 2026-04-25 06:37 | 33.87192 | -117.98373 | 90 ft | 10 kts | 194° |
| 2026-04-25 06:38 | 33.87156 | -117.98478 | 92 ft | 10 kts | 202° |
| 2026-04-25 06:38 | 33.87114 | -117.98448 | 89 ft | 6 kts | 72° |
| 2026-04-25 06:38 | 33.87115 | -117.98439 | 90 ft | 0 kts | 76° |
| 2026-04-25 06:39 | 33.87116 | -117.98439 | 89 ft | 1 kts | 76° |
| 2026-04-25 06:39 | 33.87145 | -117.98285 | 91 ft | 38 kts | 77° |
| 2026-04-25 06:39 | 33.87227 | -117.97835 | 105 ft | 70 kts | 85° |
| 2026-04-25 06:39 | 33.87344 | -117.97268 | 218 ft | 74 kts | 77° |
| 2026-04-25 06:40 | 33.87497 | -117.96603 | 306 ft | 85 kts | 79° |
| 2026-04-25 06:40 | 33.87608 | -117.95911 | 478 ft | 87 kts | 80° |
| 2026-04-25 06:40 | 33.87805 | -117.95181 | 626 ft | 93 kts | 75° |
| 2026-04-25 06:40 | 33.87957 | -117.94440 | 827 ft | 93 kts | 69° |
| 2026-04-25 06:41 | 33.88448 | -117.93887 | 928 ft | 107 kts | 21° |
| 2026-04-25 06:41 | 33.89225 | -117.93814 | 1027 ft | 117 kts | 352° |
| 2026-04-25 06:41 | 33.90022 | -117.94055 | 1182 ft | 120 kts | 343° |
| 2026-04-25 06:41 | 33.90836 | -117.94352 | 1319 ft | 124 kts | 336° |
| 2026-04-25 06:42 | 33.91504 | -117.95072 | 1252 ft | 139 kts | 295° |
| 2026-04-25 06:42 | 33.91657 | -117.96142 | 1477 ft | 124 kts | 261° |
| 2026-04-25 06:42 | 33.91478 | -117.97222 | 1444 ft | 135 kts | 256° |
| 2026-04-25 06:42 | 33.91221 | -117.98260 | 1674 ft | 125 kts | 245° |
| 2026-04-25 06:43 | 33.90816 | -117.99141 | 1923 ft | 116 kts | 232° |
| 2026-04-25 06:43 | 33.90203 | -117.99781 | 2026 ft | 121 kts | 206° |
| 2026-04-25 06:43 | 33.89374 | -117.99973 | 2140 ft | 123 kts | 174° |
| 2026-04-25 06:43 | 33.88615 | -117.99536 | 2264 ft | 126 kts | 139° |
| 2026-04-25 06:44 | 33.87962 | -117.98768 | 2277 ft | 135 kts | 136° |
| 2026-04-25 06:44 | 33.87200 | -117.98186 | 2526 ft | 121 kts | 168° |
| 2026-04-25 06:44 | 33.86390 | -117.98288 | 2698 ft | 121 kts | 204° |
| 2026-04-25 06:44 | 33.85702 | -117.98897 | 2777 ft | 125 kts | 227° |
| 2026-04-25 06:45 | 33.85483 | -117.99894 | 2847 ft | 132 kts | 276° |
| 2026-04-25 06:45 | 33.85977 | -118.00870 | 2757 ft | 147 kts | 313° |
| 2026-04-25 06:45 | 33.86423 | -118.01956 | 2737 ft | 148 kts | 282° |
| 2026-04-25 06:45 | 33.86578 | -118.03160 | 2844 ft | 140 kts | 274° |
| 2026-04-25 06:46 | 33.86686 | -118.04296 | 2975 ft | 135 kts | 280° |
| 2026-04-25 06:46 | 33.87011 | -118.05381 | 2985 ft | 143 kts | 294° |
| 2026-04-25 06:46 | 33.87456 | -118.06459 | 2969 ft | 148 kts | 298° |
| 2026-04-25 06:46 | 33.87993 | -118.07563 | 2885 ft | 154 kts | 298° |
| 2026-04-25 06:47 | 33.88370 | -118.08766 | 2798 ft | 159 kts | 281° |
| 2026-04-25 06:47 | 33.88489 | -118.10086 | 2799 ft | 154 kts | 268° |
| 2026-04-25 06:47 | 33.88412 | -118.11356 | 2708 ft | 157 kts | 264° |
| 2026-04-25 06:47 | 33.88307 | -118.12699 | 2552 ft | 164 kts | 263° |
| 2026-04-25 06:48 | 33.88164 | -118.14069 | 2410 ft | 165 kts | 260° |
| 2026-04-25 06:48 | 33.87969 | -118.15400 | 2407 ft | 157 kts | 257° |
| 2026-04-25 06:48 | 33.87812 | -118.16742 | 2233 ft | 163 kts | 264° |
| 2026-04-25 06:48 | 33.87758 | -118.18085 | 2234 ft | 157 kts | 266° |
| 2026-04-25 06:49 | 33.87694 | -118.19389 | 2180 ft | 158 kts | 264° |
| 2026-04-25 06:49 | 33.87610 | -118.20725 | 2014 ft | 163 kts | 265° |
| 2026-04-25 06:49 | 33.87522 | -118.22081 | 1910 ft | 162 kts | 264° |
| 2026-04-25 06:49 | 33.87412 | -118.23412 | 1850 ft | 159 kts | 262° |
| 2026-04-25 06:50 | 33.87270 | -118.24705 | 1997 ft | 146 kts | 261° |
| 2026-04-25 06:50 | 33.87160 | -118.25963 | 1827 ft | 157 kts | 263° |
| 2026-04-25 06:50 | 33.87063 | -118.27295 | 1662 ft | 159 kts | 263° |
| 2026-04-25 06:50 | 33.86966 | -118.28561 | 1498 ft | 144 kts | 263° |
| 2026-04-25 06:51 | 33.86907 | -118.29708 | 1449 ft | 132 kts | 266° |
| 2026-04-25 06:51 | 33.86890 | -118.30791 | 1367 ft | 128 kts | 269° |
| 2026-04-25 06:51 | 33.86998 | -118.31842 | 1297 ft | 125 kts | 285° |
| 2026-04-25 06:51 | 33.87341 | -118.32811 | 1187 ft | 128 kts | 295° |
| 2026-04-25 06:52 | 33.87819 | -118.33669 | 1272 ft | 120 kts | 310° |
| 2026-04-25 06:52 | 33.88362 | -118.34441 | 1463 ft | 118 kts | 311° |
| 2026-04-25 06:52 | 33.88920 | -118.35100 | 1771 ft | 106 kts | 316° |
| 2026-04-25 06:52 | 33.89463 | -118.35681 | 1988 ft | 105 kts | 320° |
| 2026-04-25 06:53 | 33.90044 | -118.36248 | 2107 ft | 113 kts | 323° |
| 2026-04-25 06:53 | 33.90712 | -118.36738 | 2312 ft | 112 kts | 335° |
| 2026-04-25 06:53 | 33.91169 | -118.37020 | 2466 ft | 110 kts | 331° |
| 2026-04-25 06:53 | 33.92119 | -118.37679 | 2525 ft | 126 kts | 328° |
| 2026-04-25 06:54 | 33.92640 | -118.38064 | 2516 ft | 135 kts | 328° |
| 2026-04-25 06:54 | 33.93450 | -118.38700 | 2509 ft | 142 kts | 326° |
| 2026-04-25 06:54 | 33.94272 | -118.39372 | 2557 ft | 143 kts | 326° |
| 2026-04-25 06:54 | 33.95092 | -118.40057 | 2592 ft | 144 kts | 326° |
| 2026-04-25 06:55 | 33.95934 | -118.40720 | 2623 ft | 145 kts | 327° |
| 2026-04-25 06:55 | 33.96782 | -118.41386 | 2652 ft | 146 kts | 327° |
| 2026-04-25 06:55 | 33.97629 | -118.42056 | 2679 ft | 146 kts | 327° |
| 2026-04-25 06:55 | 33.98478 | -118.42728 | 2703 ft | 146 kts | 327° |
| 2026-04-25 06:56 | 33.99321 | -118.43399 | 2714 ft | 145 kts | 327° |
| 2026-04-25 06:56 | 34.00141 | -118.44099 | 2734 ft | 144 kts | 326° |
| 2026-04-25 06:56 | 34.00957 | -118.44797 | 2758 ft | 144 kts | 326° |
| 2026-04-25 06:56 | 34.01773 | -118.45493 | 2778 ft | 144 kts | 326° |
| 2026-04-25 06:57 | 34.02591 | -118.46184 | 2801 ft | 143 kts | 326° |
| 2026-04-25 06:57 | 34.03403 | -118.46873 | 2869 ft | 139 kts | 326° |
| 2026-04-25 06:57 | 34.04156 | -118.47515 | 3105 ft | 126 kts | 326° |
| 2026-04-25 06:57 | 34.04844 | -118.48100 | 3332 ft | 116 kts | 326° |
| 2026-04-25 06:58 | 34.05507 | -118.48599 | 3547 ft | 111 kts | 345° |
| 2026-04-25 06:58 | 34.06242 | -118.48759 | 3778 ft | 105 kts | 346° |
| 2026-04-25 06:58 | 34.06940 | -118.48947 | 4005 ft | 100 kts | 347° |
| 2026-04-25 06:58 | 34.07608 | -118.49106 | 4240 ft | 95 kts | 346° |
| 2026-04-25 06:59 | 34.08240 | -118.49240 | 4458 ft | 88 kts | 347° |
| 2026-04-25 06:59 | 34.08817 | -118.49358 | 4609 ft | 83 kts | 346° |
| 2026-04-25 06:59 | 34.09385 | -118.49477 | 4723 ft | 86 kts | 342° |
| 2026-04-25 06:59 | 34.10015 | -118.49667 | 4749 ft | 103 kts | 341° |
| 2026-04-25 07:00 | 34.10780 | -118.49890 | 4779 ft | 119 kts | 344° |
| 2026-04-25 07:00 | 34.11583 | -118.50076 | 4984 ft | 114 kts | 345° |
| 2026-04-25 07:00 | 34.12364 | -118.50268 | 5161 ft | 115 kts | 346° |
| 2026-04-25 07:00 | 34.13150 | -118.50456 | 5320 ft | 116 kts | 345° |
| 2026-04-25 07:01 | 34.13956 | -118.50606 | 5437 ft | 117 kts | 347° |
| 2026-04-25 07:01 | 34.14789 | -118.50756 | 5491 ft | 127 kts | 347° |
| 2026-04-25 07:01 | 34.15694 | -118.50928 | 5492 ft | 136 kts | 347° |
| 2026-04-25 07:01 | 34.16652 | -118.51110 | 5491 ft | 142 kts | 348° |
| 2026-04-25 07:02 | 34.17655 | -118.51301 | 5490 ft | 146 kts | 347° |
| 2026-04-25 07:02 | 34.18667 | -118.51496 | 5489 ft | 149 kts | 348° |
| 2026-04-25 07:02 | 34.19691 | -118.51696 | 5496 ft | 150 kts | 348° |
| 2026-04-25 07:02 | 34.20729 | -118.51899 | 5491 ft | 152 kts | 347° |
| 2026-04-25 07:03 | 34.21775 | -118.52104 | 5491 ft | 152 kts | 347° |
| 2026-04-25 07:03 | 34.22823 | -118.52309 | 5491 ft | 153 kts | 348° |
| 2026-04-25 07:03 | 34.23874 | -118.52513 | 5491 ft | 153 kts | 348° |
| 2026-04-25 07:03 | 34.24928 | -118.52325 | 5488 ft | 157 kts | 18° |
| 2026-04-25 07:04 | 34.25952 | -118.51863 | 5490 ft | 157 kts | 18° |
| 2026-04-25 07:04 | 34.26978 | -118.51409 | 5490 ft | 157 kts | 18° |
| 2026-04-25 07:04 | 34.28003 | -118.50953 | 5489 ft | 157 kts | 18° |
| 2026-04-25 07:04 | 34.29028 | -118.50498 | 5490 ft | 157 kts | 18° |
| 2026-04-25 07:05 | 34.30053 | -118.50043 | 5481 ft | 157 kts | 18° |
| 2026-04-25 07:05 | 34.31081 | -118.49589 | 5481 ft | 157 kts | 18° |
| 2026-04-25 07:05 | 34.32108 | -118.49135 | 5482 ft | 158 kts | 18° |
| 2026-04-25 07:05 | 34.33138 | -118.48679 | 5483 ft | 158 kts | 18° |
| 2026-04-25 07:06 | 34.34108 | -118.48051 | 5480 ft | 161 kts | 41° |
| 2026-04-25 07:06 | 34.34898 | -118.47089 | 5480 ft | 160 kts | 44° |
| 2026-04-25 07:06 | 34.35685 | -118.46130 | 5482 ft | 161 kts | 43° |
| 2026-04-25 07:06 | 34.36480 | -118.45178 | 5481 ft | 161 kts | 43° |
| 2026-04-25 07:07 | 34.37267 | -118.44232 | 5478 ft | 159 kts | 44° |
| 2026-04-25 07:07 | 34.38049 | -118.43282 | 5478 ft | 160 kts | 44° |
| 2026-04-25 07:07 | 34.38834 | -118.42332 | 5473 ft | 159 kts | 43° |
| 2026-04-25 07:07 | 34.39618 | -118.41382 | 5474 ft | 160 kts | 44° |
| 2026-04-25 07:08 | 34.40404 | -118.40429 | 5477 ft | 160 kts | 44° |
| 2026-04-25 07:08 | 34.41191 | -118.39470 | 5471 ft | 161 kts | 44° |
| 2026-04-25 07:08 | 34.41981 | -118.38512 | 5473 ft | 161 kts | 44° |
| 2026-04-25 07:08 | 34.42773 | -118.37550 | 5470 ft | 161 kts | 44° |
| 2026-04-25 07:09 | 34.43562 | -118.36590 | 5472 ft | 161 kts | 44° |
| 2026-04-25 07:09 | 34.44367 | -118.35626 | 5462 ft | 165 kts | 44° |
| 2026-04-25 07:09 | 34.45200 | -118.34634 | 5469 ft | 167 kts | 44° |
| 2026-04-25 07:09 | 34.46029 | -118.33648 | 5467 ft | 166 kts | 45° |
| 2026-04-25 07:10 | 34.46857 | -118.32676 | 5470 ft | 166 kts | 44° |
| 2026-04-25 07:10 | 34.47639 | -118.31652 | 5481 ft | 166 kts | 49° |
| 2026-04-25 07:10 | 34.48074 | -118.30332 | 5467 ft | 171 kts | 70° |
| 2026-04-25 07:10 | 34.48422 | -118.28947 | 5458 ft | 172 kts | 70° |
| 2026-04-25 07:11 | 34.48777 | -118.27570 | 5480 ft | 171 kts | 70° |
| 2026-04-25 07:11 | 34.49116 | -118.26183 | 5492 ft | 172 kts | 73° |
| 2026-04-25 07:11 | 34.49328 | -118.24762 | 5488 ft | 172 kts | 80° |
| 2026-04-25 07:11 | 34.49554 | -118.23364 | 5495 ft | 167 kts | 79° |
| 2026-04-25 07:12 | 34.49815 | -118.21999 | 5492 ft | 166 kts | 78° |
| 2026-04-25 07:12 | 34.50350 | -118.19257 | 5494 ft | 167 kts | 75° |
| 2026-04-25 07:12 | 34.51026 | -118.18146 | 5500 ft | 167 kts | 28° |
| 2026-04-25 07:13 | 34.52057 | -118.17559 | 5501 ft | 162 kts | 18° |
| 2026-04-25 07:13 | 34.53066 | -118.16953 | 5497 ft | 161 kts | 20° |
| 2026-04-25 07:13 | 34.54064 | -118.16366 | 5491 ft | 158 kts | 19° |
| 2026-04-25 07:13 | 34.55081 | -118.16017 | 5484 ft | 147 kts | 349° |
| 2026-04-25 07:14 | 34.56040 | -118.16282 | 5492 ft | 140 kts | 338° |
| 2026-04-25 07:14 | 34.56983 | -118.16578 | 5497 ft | 139 kts | 339° |
| 2026-04-25 07:14 | 34.57926 | -118.16883 | 5500 ft | 141 kts | 339° |
| 2026-04-25 07:14 | 34.58887 | -118.17197 | 5501 ft | 144 kts | 338° |
| 2026-04-25 07:15 | 34.59859 | -118.17504 | 5505 ft | 144 kts | 339° |
| 2026-04-25 07:15 | 34.60830 | -118.17812 | 5509 ft | 144 kts | 339° |
| 2026-04-25 07:15 | 34.61799 | -118.18126 | 5510 ft | 144 kts | 338° |
| 2026-04-25 07:15 | 34.62772 | -118.18436 | 5512 ft | 145 kts | 339° |
| 2026-04-25 07:16 | 34.63747 | -118.18744 | 5513 ft | 145 kts | 339° |
| 2026-04-25 07:16 | 34.64721 | -118.19049 | 5514 ft | 144 kts | 339° |
| 2026-04-25 07:16 | 34.65689 | -118.19359 | 5514 ft | 143 kts | 339° |
| 2026-04-25 07:16 | 34.66651 | -118.19669 | 5513 ft | 143 kts | 339° |
| 2026-04-25 07:17 | 34.67574 | -118.19777 | 5305 ft | 135 kts | 8° |
| 2026-04-25 07:17 | 34.68436 | -118.19196 | 4811 ft | 141 kts | 31° |
| 2026-04-25 07:17 | 34.69149 | -118.18456 | 4662 ft | 120 kts | 33° |
| 2026-04-25 07:17 | 34.69792 | -118.17921 | 4480 ft | 108 kts | 13° |
| 2026-04-25 07:18 | 34.70526 | -118.17709 | 4138 ft | 112 kts | 360° |
| 2026-04-25 07:18 | 34.71176 | -118.17621 | 3982 ft | 80 kts | 351° |
| 2026-04-25 07:18 | 34.71684 | -118.17685 | 3777 ft | 69 kts | 334° |
| 2026-04-25 07:18 | 34.72149 | -118.17831 | 3592 ft | 69 kts | 330° |
| 2026-04-25 07:19 | 34.72616 | -118.17996 | 3441 ft | 74 kts | 325° |
| 2026-04-25 07:19 | 34.73095 | -118.18239 | 3308 ft | 75 kts | 324° |
| 2026-04-25 07:19 | 34.73541 | -118.18558 | 3170 ft | 74 kts | 315° |
| 2026-04-25 07:19 | 34.73934 | -118.18962 | 3041 ft | 75 kts | 304° |
| 2026-04-25 07:20 | 34.74228 | -118.19438 | 2844 ft | 66 kts | 290° |
| 2026-04-25 07:20 | 34.74439 | -118.19930 | 2684 ft | 65 kts | 279° |
| 2026-04-25 07:20 | 34.74463 | -118.20485 | 2494 ft | 66 kts | 257° |
| 2026-04-25 07:20 | 34.74339 | -118.20998 | 2350 ft | 59 kts | 249° |
| 2026-04-25 07:21 | 34.74225 | -118.21404 | 2344 ft | 52 kts | 252° |
| 2026-04-25 07:21 | 34.74109 | -118.21865 | 2376 ft | 62 kts | 250° |
| 2026-04-25 07:21 | 34.73987 | -118.22364 | 2483 ft | 62 kts | 248° |
| 2026-04-25 07:21 | 34.73826 | -118.22909 | 2532 ft | 75 kts | 248° |
| 2026-04-25 07:22 | 34.73636 | -118.23533 | 2671 ft | 81 kts | 248° |
| 2026-04-25 07:22 | 34.73476 | -118.24162 | 2903 ft | 76 kts | 248° |
| 2026-04-25 07:22 | 34.73306 | -118.24752 | 3086 ft | 78 kts | 244° |
| 2026-04-25 07:22 | 34.72947 | -118.25359 | 3088 ft | 97 kts | 230° |
| 2026-04-25 07:23 | 34.72530 | -118.25968 | 3365 ft | 88 kts | 221° |
| 2026-04-25 07:23 | 34.71929 | -118.26146 | 3537 ft | 100 kts | 178° |
| 2026-04-25 07:23 | 34.71334 | -118.25612 | 3671 ft | 120 kts | 126° |
| 2026-04-25 07:23 | 34.71149 | -118.24570 | 3751 ft | 135 kts | 94° |
| 2026-04-25 07:24 | 34.71331 | -118.23397 | 3728 ft | 150 kts | 70° |
| 2026-04-25 07:24 | 34.71767 | -118.22155 | 3586 ft | 166 kts | 64° |
| 2026-04-25 07:24 | 34.72300 | -118.20913 | 3567 ft | 169 kts | 60° |
| 2026-04-25 07:24 | 34.72789 | -118.19605 | 3581 ft | 167 kts | 68° |
| 2026-04-25 07:25 | 34.73304 | -118.18374 | 3731 ft | 159 kts | 48° |
| 2026-04-25 07:25 | 34.74193 | -118.17721 | 3864 ft | 147 kts | 5° |
| 2026-04-25 07:25 | 34.75131 | -118.17865 | 4053 ft | 127 kts | 328° |
| 2026-04-25 07:25 | 34.75539 | -118.18593 | 4356 ft | 102 kts | 275° |
| 2026-04-25 07:26 | 34.75596 | -118.19399 | 4635 ft | 91 kts | 277° |
| 2026-04-25 07:26 | 34.75609 | -118.19914 | 4767 ft | 89 kts | 272° |
| 2026-04-25 07:26 | 34.75541 | -118.20640 | 4968 ft | 88 kts | 264° |
| 2026-04-25 07:26 | 34.75257 | -118.21398 | 4894 ft | 117 kts | 234° |
| 2026-04-25 07:27 | 34.74494 | -118.21899 | 4940 ft | 134 kts | 198° |
| 2026-04-25 07:27 | 34.73582 | -118.21955 | 5196 ft | 130 kts | 182° |
| 2026-04-25 07:27 | 34.72673 | -118.21685 | 5275 ft | 138 kts | 168° |
| 2026-04-25 07:27 | 34.71796 | -118.21304 | 5477 ft | 132 kts | 168° |
| 2026-04-25 07:28 | 34.70926 | -118.20892 | 5584 ft | 136 kts | 165° |
| 2026-04-25 07:28 | 34.70057 | -118.20459 | 5733 ft | 135 kts | 161° |
| 2026-04-25 07:28 | 34.69254 | -118.19861 | 5934 ft | 133 kts | 153° |
| 2026-04-25 07:28 | 34.68496 | -118.19271 | 6147 ft | 125 kts | 158° |
| 2026-04-25 07:29 | 34.67733 | -118.18775 | 6317 ft | 126 kts | 156° |
| 2026-04-25 07:29 | 34.66937 | -118.18289 | 6419 ft | 127 kts | 166° |
| 2026-04-25 07:29 | 34.66138 | -118.17926 | 6641 ft | 122 kts | 165° |
| 2026-04-25 07:29 | 34.65341 | -118.17563 | 6776 ft | 123 kts | 170° |
| 2026-04-25 07:30 | 34.64514 | -118.17295 | 6917 ft | 121 kts | 176° |
| 2026-04-25 07:30 | 34.63699 | -118.17104 | 7079 ft | 119 kts | 181° |
| 2026-04-25 07:30 | 34.62885 | -118.16972 | 7241 ft | 117 kts | 182° |
| 2026-04-25 07:30 | 34.62073 | -118.16862 | 7409 ft | 116 kts | 183° |
| 2026-04-25 07:31 | 34.61261 | -118.16803 | 7533 ft | 117 kts | 188° |
| 2026-04-25 07:31 | 34.60458 | -118.16835 | 7690 ft | 115 kts | 191° |
| 2026-04-25 07:31 | 34.59646 | -118.16886 | 7778 ft | 120 kts | 192° |
| 2026-04-25 07:31 | 34.58787 | -118.16868 | 7877 ft | 125 kts | 185° |
| 2026-04-25 07:32 | 34.57918 | -118.16816 | 8008 ft | 124 kts | 191° |
| 2026-04-25 07:32 | 34.57205 | -118.17231 | 8147 ft | 112 kts | 226° |
| 2026-04-25 07:32 | 34.56592 | -118.17812 | 8292 ft | 111 kts | 224° |
| 2026-04-25 07:32 | 34.55986 | -118.18379 | 8430 ft | 108 kts | 224° |
| 2026-04-25 07:33 | 34.55403 | -118.18919 | 8570 ft | 105 kts | 224° |
| 2026-04-25 07:33 | 34.54841 | -118.19450 | 8679 ft | 103 kts | 224° |
| 2026-04-25 07:33 | 34.54290 | -118.19965 | 8735 ft | 98 kts | 224° |
| 2026-04-25 07:33 | 34.53729 | -118.20463 | 8765 ft | 104 kts | 223° |
| 2026-04-25 07:34 | 34.53132 | -118.21035 | 8778 ft | 115 kts | 224° |
| 2026-04-25 07:34 | 34.52483 | -118.21659 | 8810 ft | 123 kts | 223° |
| 2026-04-25 07:34 | 34.51622 | -118.21933 | 8818 ft | 141 kts | 177° |
| 2026-04-25 07:34 | 34.50726 | -118.21347 | 8842 ft | 151 kts | 153° |
| 2026-04-25 07:35 | 34.49804 | -118.20717 | 8860 ft | 154 kts | 158° |
| 2026-04-25 07:35 | 34.48862 | -118.20097 | 8876 ft | 155 kts | 158° |
| 2026-04-25 07:35 | 34.47918 | -118.19466 | 8886 ft | 156 kts | 158° |
| 2026-04-25 07:35 | 34.46963 | -118.18830 | 8875 ft | 157 kts | 158° |
| 2026-04-25 07:36 | 34.46005 | -118.18196 | 8889 ft | 157 kts | 158° |
| 2026-04-25 07:36 | 34.45043 | -118.17555 | 8883 ft | 159 kts | 158° |
| 2026-04-25 07:36 | 34.44073 | -118.16908 | 8888 ft | 159 kts | 157° |
| 2026-04-25 07:36 | 34.43100 | -118.16262 | 8890 ft | 160 kts | 158° |
| 2026-04-25 07:37 | 34.42127 | -118.15616 | 8886 ft | 159 kts | 158° |
| 2026-04-25 07:37 | 34.41157 | -118.14967 | 8888 ft | 159 kts | 158° |
| 2026-04-25 07:37 | 34.40182 | -118.14323 | 8891 ft | 160 kts | 158° |
| 2026-04-25 07:37 | 34.39209 | -118.13667 | 8879 ft | 159 kts | 156° |
| 2026-04-25 07:38 | 34.38259 | -118.13029 | 8900 ft | 155 kts | 158° |
| 2026-04-25 07:38 | 34.37307 | -118.12397 | 8899 ft | 157 kts | 158° |
| 2026-04-25 07:38 | 34.36333 | -118.11770 | 8892 ft | 155 kts | 157° |
| 2026-04-25 07:38 | 34.35393 | -118.11129 | 8886 ft | 155 kts | 157° |
| 2026-04-25 07:39 | 34.34458 | -118.10499 | 8890 ft | 157 kts | 157° |
| 2026-04-25 07:39 | 34.33489 | -118.09852 | 8889 ft | 158 kts | 157° |
| 2026-04-25 07:39 | 34.32525 | -118.09208 | 8886 ft | 158 kts | 157° |
| 2026-04-25 07:39 | 34.31562 | -118.08573 | 8889 ft | 158 kts | 158° |
| 2026-04-25 07:40 | 34.30598 | -118.07943 | 8897 ft | 158 kts | 158° |
| 2026-04-25 07:40 | 34.29629 | -118.07307 | 8897 ft | 160 kts | 157° |
| 2026-04-25 07:40 | 34.28646 | -118.06671 | 8894 ft | 160 kts | 156° |
| 2026-04-25 07:40 | 34.27694 | -118.06023 | 8880 ft | 155 kts | 156° |
| 2026-04-25 07:41 | 34.26745 | -118.05406 | 8887 ft | 156 kts | 158° |
| 2026-04-25 07:41 | 34.25781 | -118.04795 | 8883 ft | 156 kts | 158° |
| 2026-04-25 07:41 | 34.24814 | -118.04181 | 8887 ft | 158 kts | 158° |
| 2026-04-25 07:41 | 34.23850 | -118.03548 | 8887 ft | 158 kts | 157° |
| 2026-04-25 07:42 | 34.22885 | -118.02917 | 8893 ft | 157 kts | 157° |
| 2026-04-25 07:42 | 34.21914 | -118.02291 | 8904 ft | 159 kts | 158° |
| 2026-04-25 07:42 | 34.20938 | -118.01667 | 8897 ft | 159 kts | 158° |
| 2026-04-25 07:42 | 34.19946 | -118.01077 | 8908 ft | 160 kts | 161° |
| 2026-04-25 07:43 | 34.18925 | -118.00548 | 8912 ft | 160 kts | 164° |
| 2026-04-25 07:43 | 34.17885 | -118.00080 | 8914 ft | 158 kts | 167° |
| 2026-04-25 07:43 | 34.16834 | -117.99685 | 8911 ft | 158 kts | 170° |
| 2026-04-25 07:43 | 34.15780 | -117.99343 | 8901 ft | 156 kts | 172° |
| 2026-04-25 07:44 | 34.14729 | -117.99013 | 8903 ft | 159 kts | 162° |
| 2026-04-25 07:44 | 34.13933 | -117.98061 | 8892 ft | 170 kts | 117° |
| 2026-04-25 07:44 | 34.13813 | -117.96648 | 8886 ft | 172 kts | 85° |
| 2026-04-25 07:44 | 34.13825 | -117.95220 | 8887 ft | 170 kts | 101° |
| 2026-04-25 07:45 | 34.13438 | -117.93891 | 8893 ft | 168 kts | 118° |
| 2026-04-25 07:45 | 34.12944 | -117.92618 | 8896 ft | 167 kts | 118° |
| 2026-04-25 07:45 | 34.12459 | -117.91325 | 8796 ft | 173 kts | 117° |
| 2026-04-25 07:45 | 34.11945 | -117.89945 | 8574 ft | 182 kts | 117° |
| 2026-04-25 07:46 | 34.11430 | -117.88548 | 8363 ft | 187 kts | 117° |
| 2026-04-25 07:46 | 34.10893 | -117.87087 | 8143 ft | 187 kts | 116° |
| 2026-04-25 07:46 | 34.10377 | -117.85667 | 7912 ft | 184 kts | 116° |
| 2026-04-25 07:46 | 34.09861 | -117.84264 | 7665 ft | 183 kts | 116° |
| 2026-04-25 07:47 | 34.09344 | -117.82863 | 7418 ft | 183 kts | 116° |
| 2026-04-25 07:47 | 34.08824 | -117.81459 | 7186 ft | 182 kts | 116° |
| 2026-04-25 07:47 | 34.08307 | -117.80057 | 6946 ft | 184 kts | 116° |
| 2026-04-25 07:47 | 34.07779 | -117.78633 | 6709 ft | 187 kts | 116° |
| 2026-04-25 07:48 | 34.07250 | -117.77201 | 6472 ft | 187 kts | 116° |
| 2026-04-25 07:48 | 34.06723 | -117.75773 | 6229 ft | 186 kts | 115° |
| 2026-04-25 07:48 | 34.06196 | -117.74348 | 5973 ft | 185 kts | 115° |
| 2026-04-25 07:48 | 34.05674 | -117.72937 | 5717 ft | 184 kts | 115° |
| 2026-04-25 07:49 | 34.05157 | -117.71538 | 5473 ft | 182 kts | 115° |
| 2026-04-25 07:49 | 34.04544 | -117.70224 | 5218 ft | 178 kts | 136° |
| 2026-04-25 07:49 | 34.03457 | -117.69661 | 4971 ft | 172 kts | 180° |
| 2026-04-25 07:49 | 34.02384 | -117.70188 | 4732 ft | 171 kts | 226° |
| 2026-04-25 07:50 | 34.01948 | -117.71482 | 4477 ft | 171 kts | 270° |
| 2026-04-25 07:50 | 34.02163 | -117.72888 | 4215 ft | 171 kts | 285° |
| 2026-04-25 07:50 | 34.02547 | -117.74241 | 3964 ft | 170 kts | 292° |
| 2026-04-25 07:50 | 34.03023 | -117.75548 | 3714 ft | 170 kts | 291° |
| 2026-04-25 07:51 | 34.03480 | -117.76864 | 3464 ft | 170 kts | 295° |
| 2026-04-25 07:51 | 34.04058 | -117.78109 | 3214 ft | 171 kts | 306° |
| 2026-04-25 07:51 | 34.04890 | -117.79118 | 2953 ft | 170 kts | 325° |
| 2026-04-25 07:51 | 34.05977 | -117.79655 | 2701 ft | 169 kts | 351° |
| 2026-04-25 07:52 | 34.07065 | -117.79523 | 2532 ft | 148 kts | 21° |
| 2026-04-25 07:52 | 34.07876 | -117.78903 | 2519 ft | 132 kts | 44° |
| 2026-04-25 07:52 | 34.08515 | -117.78169 | 2520 ft | 123 kts | 43° |
| 2026-04-25 07:52 | 34.08991 | -117.77372 | 2517 ft | 117 kts | 83° |
| 2026-04-25 07:53 | 34.08742 | -117.76481 | 2527 ft | 114 kts | 121° |
| 2026-04-25 07:53 | 34.08300 | -117.75683 | 2526 ft | 115 kts | 132° |
| 2026-04-25 07:53 | 34.07657 | -117.75099 | 2527 ft | 115 kts | 156° |
| 2026-04-25 07:53 | 34.06879 | -117.74885 | 2528 ft | 116 kts | 179° |
| 2026-04-25 07:54 | 34.06096 | -117.75081 | 2528 ft | 116 kts | 204° |
| 2026-04-25 07:54 | 34.05442 | -117.75647 | 2531 ft | 117 kts | 221° |
| 2026-04-25 07:54 | 34.04968 | -117.76432 | 2529 ft | 118 kts | 248° |
| 2026-04-25 07:54 | 34.04845 | -117.77402 | 2530 ft | 118 kts | 274° |
| 2026-04-25 07:55 | 34.05100 | -117.78339 | 2531 ft | 119 kts | 301° |
| 2026-04-25 07:55 | 34.05699 | -117.79051 | 2535 ft | 127 kts | 329° |
| 2026-04-25 07:55 | 34.06563 | -117.79335 | 2544 ft | 133 kts | 0° |
| 2026-04-25 07:55 | 34.07461 | -117.79036 | 2538 ft | 137 kts | 32° |
| 2026-04-25 07:56 | 34.08220 | -117.78313 | 2544 ft | 140 kts | 40° |
| 2026-04-25 07:56 | 34.08989 | -117.77583 | 2536 ft | 141 kts | 39° |
| 2026-04-25 07:56 | 34.09546 | -117.76652 | 2535 ft | 140 kts | 81° |
| 2026-04-25 07:56 | 34.09260 | -117.75588 | 2530 ft | 138 kts | 137° |
| 2026-04-25 07:57 | 34.08421 | -117.75048 | 2542 ft | 137 kts | 155° |
| 2026-04-25 07:57 | 34.07514 | -117.74693 | 2539 ft | 138 kts | 172° |
| 2026-04-25 07:57 | 34.06557 | -117.74731 | 2537 ft | 139 kts | 193° |
| 2026-04-25 07:57 | 34.05690 | -117.75227 | 2539 ft | 139 kts | 218° |
| 2026-04-25 07:58 | 34.05034 | -117.76085 | 2535 ft | 140 kts | 239° |
| 2026-04-25 07:58 | 34.04794 | -117.77213 | 2540 ft | 141 kts | 270° |
| 2026-04-25 07:58 | 34.05065 | -117.78341 | 2540 ft | 142 kts | 302° |
| 2026-04-25 07:58 | 34.05787 | -117.79134 | 2536 ft | 142 kts | 334° |
| 2026-04-25 07:59 | 34.06750 | -117.79340 | 2540 ft | 142 kts | 7° |
| 2026-04-25 07:59 | 34.07652 | -117.78891 | 2539 ft | 142 kts | 38° |
| 2026-04-25 07:59 | 34.08316 | -117.78025 | 2538 ft | 141 kts | 64° |
| 2026-04-25 07:59 | 34.08490 | -117.76878 | 2539 ft | 140 kts | 97° |
| 2026-04-25 08:00 | 34.08136 | -117.75806 | 2538 ft | 139 kts | 128° |
| 2026-04-25 08:00 | 34.07368 | -117.75127 | 2541 ft | 139 kts | 160° |
| 2026-04-25 08:00 | 34.06728 | -117.75003 | 2543 ft | 139 kts | 181° |
| 2026-04-25 08:00 | 34.05821 | -117.75356 | 2544 ft | 139 kts | 213° |
| 2026-04-25 08:01 | 34.05121 | -117.76161 | 2539 ft | 140 kts | 237° |
| 2026-04-25 08:01 | 34.04868 | -117.77285 | 2541 ft | 141 kts | 270° |
| 2026-04-25 08:01 | 34.05156 | -117.78404 | 2536 ft | 142 kts | 303° |
| 2026-04-25 08:01 | 34.05906 | -117.79157 | 2535 ft | 143 kts | 337° |
| 2026-04-25 08:02 | 34.06878 | -117.79293 | 2536 ft | 142 kts | 11° |
| 2026-04-25 08:02 | 34.07755 | -117.78773 | 2539 ft | 142 kts | 40° |
| 2026-04-25 08:02 | 34.08369 | -117.77863 | 2533 ft | 141 kts | 69° |
| 2026-04-25 08:02 | 34.08465 | -117.76703 | 2536 ft | 140 kts | 101° |
| 2026-04-25 08:03 | 34.08040 | -117.75672 | 2538 ft | 139 kts | 133° |
| 2026-04-25 08:03 | 34.07224 | -117.75075 | 2534 ft | 139 kts | 165° |
| 2026-04-25 08:03 | 34.06271 | -117.75096 | 2534 ft | 139 kts | 197° |
| 2026-04-25 08:03 | 34.05454 | -117.75708 | 2538 ft | 140 kts | 221° |
| 2026-04-25 08:04 | 34.04931 | -117.76679 | 2533 ft | 141 kts | 254° |
| 2026-04-25 08:04 | 34.04938 | -117.77850 | 2533 ft | 142 kts | 286° |
| 2026-04-25 08:04 | 34.05474 | -117.78834 | 2534 ft | 143 kts | 320° |
| 2026-04-25 08:04 | 34.06370 | -117.79308 | 2534 ft | 142 kts | 353° |
| 2026-04-25 08:05 | 34.07332 | -117.79114 | 2538 ft | 142 kts | 27° |
| 2026-04-25 08:05 | 34.08125 | -117.78405 | 2537 ft | 142 kts | 41° |
| 2026-04-25 08:05 | 34.08604 | -117.77407 | 2529 ft | 141 kts | 86° |
| 2026-04-25 08:05 | 34.08442 | -117.76261 | 2535 ft | 139 kts | 114° |
| 2026-04-25 08:06 | 34.07842 | -117.75367 | 2530 ft | 139 kts | 144° |
| 2026-04-25 08:06 | 34.06950 | -117.74969 | 2533 ft | 139 kts | 175° |
| 2026-04-25 08:06 | 34.06001 | -117.75197 | 2533 ft | 139 kts | 207° |
| 2026-04-25 08:06 | 34.05249 | -117.75929 | 2528 ft | 140 kts | 229° |
| 2026-04-25 08:07 | 34.04872 | -117.76995 | 2538 ft | 141 kts | 263° |
| 2026-04-25 08:07 | 34.05031 | -117.78152 | 2535 ft | 142 kts | 296° |
| 2026-04-25 08:07 | 34.05689 | -117.79025 | 2533 ft | 143 kts | 329° |
| 2026-04-25 08:07 | 34.06635 | -117.79324 | 2532 ft | 142 kts | 2° |
| 2026-04-25 08:08 | 34.07560 | -117.78953 | 2535 ft | 142 kts | 36° |
| 2026-04-25 08:08 | 34.08263 | -117.78129 | 2532 ft | 141 kts | 60° |
| 2026-04-25 08:08 | 34.08492 | -117.76997 | 2533 ft | 140 kts | 94° |
| 2026-04-25 08:08 | 34.08072 | -117.75978 | 2534 ft | 139 kts | 134° |
| 2026-04-25 08:09 | 34.07420 | -117.75118 | 2535 ft | 139 kts | 131° |
| 2026-04-25 08:09 | 34.06794 | -117.74232 | 2536 ft | 139 kts | 131° |
| 2026-04-25 08:09 | 34.06165 | -117.73344 | 2534 ft | 139 kts | 131° |
| 2026-04-25 08:09 | 34.05532 | -117.72448 | 2534 ft | 142 kts | 131° |
| 2026-04-25 08:10 | 34.04886 | -117.71537 | 2545 ft | 144 kts | 131° |
| 2026-04-25 08:10 | 34.04237 | -117.70617 | 2545 ft | 144 kts | 131° |
| 2026-04-25 08:10 | 34.03584 | -117.69690 | 2544 ft | 145 kts | 131° |
| 2026-04-25 08:10 | 34.02929 | -117.68762 | 2543 ft | 146 kts | 131° |
| 2026-04-25 08:11 | 34.02275 | -117.67832 | 2554 ft | 146 kts | 131° |
| 2026-04-25 08:11 | 34.01618 | -117.66902 | 2554 ft | 146 kts | 131° |
| 2026-04-25 08:11 | 34.00962 | -117.65972 | 2554 ft | 145 kts | 131° |
| 2026-04-25 08:11 | 34.00307 | -117.65044 | 2554 ft | 145 kts | 131° |
| 2026-04-25 08:12 | 33.99653 | -117.64118 | 2552 ft | 145 kts | 131° |
| 2026-04-25 08:12 | 33.98999 | -117.63191 | 2552 ft | 145 kts | 131° |
| 2026-04-25 08:12 | 33.98344 | -117.62262 | 2552 ft | 145 kts | 131° |
| 2026-04-25 08:12 | 33.97689 | -117.61336 | 2551 ft | 145 kts | 131° |
| 2026-04-25 08:13 | 33.97034 | -117.60408 | 2547 ft | 145 kts | 131° |
| 2026-04-25 08:13 | 33.96379 | -117.59481 | 2547 ft | 145 kts | 131° |
| 2026-04-25 08:13 | 33.95727 | -117.58557 | 2547 ft | 144 kts | 132° |
| 2026-04-25 08:14 | 33.94412 | -117.56702 | 2552 ft | 145 kts | 132° |
| 2026-04-25 08:14 | 33.93767 | -117.55789 | 2552 ft | 145 kts | 132° |
| 2026-04-25 08:14 | 33.93107 | -117.54855 | 2553 ft | 144 kts | 132° |
| 2026-04-25 08:14 | 33.92456 | -117.53935 | 2549 ft | 144 kts | 132° |
| 2026-04-25 08:15 | 33.91794 | -117.53023 | 2549 ft | 144 kts | 135° |
| 2026-04-25 08:15 | 33.90964 | -117.52390 | 2543 ft | 144 kts | 170° |
| 2026-04-25 08:15 | 33.90007 | -117.52648 | 2540 ft | 145 kts | 212° |
| 2026-04-25 08:15 | 33.89447 | -117.53627 | 2535 ft | 147 kts | 256° |
| 2026-04-25 08:16 | 33.89609 | -117.54820 | 2539 ft | 149 kts | 300° |
| 2026-04-25 08:16 | 33.90357 | -117.55653 | 2534 ft | 151 kts | 340° |
| 2026-04-25 08:16 | 33.91372 | -117.55563 | 2539 ft | 150 kts | 27° |
| 2026-04-25 08:16 | 33.92061 | -117.54677 | 2542 ft | 147 kts | 71° |
| 2026-04-25 08:17 | 33.92073 | -117.53489 | 2549 ft | 144 kts | 112° |
| 2026-04-25 08:17 | 33.91502 | -117.52516 | 2550 ft | 143 kts | 137° |
| 2026-04-25 08:17 | 33.90588 | -117.52162 | 2546 ft | 143 kts | 188° |
| 2026-04-25 08:17 | 33.89727 | -117.52738 | 2552 ft | 145 kts | 225° |
| 2026-04-25 08:18 | 33.89340 | -117.53839 | 2553 ft | 147 kts | 266° |
| 2026-04-25 08:18 | 33.89641 | -117.54999 | 2553 ft | 149 kts | 305° |
| 2026-04-25 08:18 | 33.90470 | -117.55706 | 2547 ft | 151 kts | 349° |
| 2026-04-25 08:18 | 33.91480 | -117.55498 | 2549 ft | 149 kts | 32° |
| 2026-04-25 08:19 | 33.92100 | -117.54547 | 2551 ft | 146 kts | 75° |
| 2026-04-25 08:19 | 33.92030 | -117.53364 | 2556 ft | 143 kts | 116° |
| 2026-04-25 08:19 | 33.91440 | -117.52397 | 2553 ft | 144 kts | 130° |
| 2026-04-25 08:19 | 33.90774 | -117.51498 | 2540 ft | 144 kts | 147° |
| 2026-04-25 08:20 | 33.89814 | -117.51366 | 2542 ft | 145 kts | 200° |
| 2026-04-25 08:20 | 33.89158 | -117.52238 | 2543 ft | 147 kts | 251° |
| 2026-04-25 08:20 | 33.88972 | -117.53440 | 2552 ft | 147 kts | 267° |
| 2026-04-25 08:20 | 33.89201 | -117.54640 | 2553 ft | 150 kts | 296° |
| 2026-04-25 08:21 | 33.89920 | -117.55528 | 2556 ft | 150 kts | 327° |
| 2026-04-25 08:21 | 33.90920 | -117.55802 | 2547 ft | 151 kts | 9° |
| 2026-04-25 08:21 | 33.91825 | -117.55229 | 2544 ft | 149 kts | 51° |
| 2026-04-25 08:21 | 33.92189 | -117.54107 | 2545 ft | 146 kts | 91° |
| 2026-04-25 08:22 | 33.91863 | -117.52986 | 2554 ft | 145 kts | 128° |
| 2026-04-25 08:22 | 33.91164 | -117.52127 | 2551 ft | 144 kts | 151° |
| 2026-04-25 08:22 | 33.90200 | -117.52081 | 2543 ft | 144 kts | 204° |
| 2026-04-25 08:22 | 33.89483 | -117.52936 | 2553 ft | 146 kts | 238° |
| 2026-04-25 08:23 | 33.89277 | -117.54114 | 2549 ft | 148 kts | 276° |
| 2026-04-25 08:23 | 33.89727 | -117.55217 | 2550 ft | 150 kts | 311° |
| 2026-04-25 08:23 | 33.90644 | -117.55748 | 2546 ft | 151 kts | 356° |
| 2026-04-25 08:23 | 33.91624 | -117.55398 | 2546 ft | 149 kts | 39° |
| 2026-04-25 08:24 | 33.92146 | -117.54365 | 2551 ft | 146 kts | 82° |
| 2026-04-25 08:24 | 33.91965 | -117.53202 | 2556 ft | 144 kts | 122° |
| 2026-04-25 08:24 | 33.91342 | -117.52251 | 2552 ft | 144 kts | 134° |
| 2026-04-25 08:24 | 33.90463 | -117.51775 | 2547 ft | 144 kts | 182° |
| 2026-04-25 08:25 | 33.89620 | -117.52356 | 2547 ft | 146 kts | 233° |
| 2026-04-25 08:25 | 33.89215 | -117.53465 | 2553 ft | 147 kts | 259° |
| 2026-04-25 08:25 | 33.89357 | -117.54676 | 2552 ft | 149 kts | 294° |
| 2026-04-25 08:25 | 33.90052 | -117.55585 | 2551 ft | 151 kts | 332° |
| 2026-04-25 08:26 | 33.91071 | -117.55737 | 2549 ft | 150 kts | 14° |
| 2026-04-25 08:26 | 33.91916 | -117.55057 | 2550 ft | 148 kts | 56° |
| 2026-04-25 08:26 | 33.92170 | -117.53899 | 2551 ft | 145 kts | 98° |
| 2026-04-25 08:26 | 33.91750 | -117.52824 | 2555 ft | 145 kts | 130° |
| 2026-04-25 08:27 | 33.90898 | -117.52258 | 2548 ft | 144 kts | 177° |
| 2026-04-25 08:27 | 33.89955 | -117.52595 | 2551 ft | 145 kts | 214° |
| 2026-04-25 08:27 | 33.89412 | -117.53591 | 2550 ft | 147 kts | 256° |
| 2026-04-25 08:27 | 33.89561 | -117.54787 | 2551 ft | 149 kts | 298° |
| 2026-04-25 08:28 | 33.90302 | -117.55637 | 2551 ft | 151 kts | 339° |
| 2026-04-25 08:28 | 33.91324 | -117.55588 | 2549 ft | 150 kts | 25° |
| 2026-04-25 08:28 | 33.92041 | -117.54734 | 2551 ft | 147 kts | 69° |
| 2026-04-25 08:28 | 33.92088 | -117.53543 | 2557 ft | 144 kts | 110° |
| 2026-04-25 08:29 | 33.91483 | -117.52607 | 2552 ft | 144 kts | 148° |
| 2026-04-25 08:29 | 33.90522 | -117.52381 | 2554 ft | 144 kts | 189° |
| 2026-04-25 08:29 | 33.89675 | -117.53009 | 2552 ft | 145 kts | 232° |
| 2026-04-25 08:29 | 33.89419 | -117.54165 | 2554 ft | 148 kts | 275° |
| 2026-04-25 08:30 | 33.89876 | -117.55261 | 2555 ft | 149 kts | 312° |
| 2026-04-25 08:30 | 33.90810 | -117.55732 | 2549 ft | 151 kts | 3° |
| 2026-04-25 08:30 | 33.91745 | -117.55247 | 2547 ft | 148 kts | 47° |
| 2026-04-25 08:30 | 33.92156 | -117.54152 | 2550 ft | 145 kts | 89° |
| 2026-04-25 08:31 | 33.91859 | -117.53023 | 2555 ft | 145 kts | 127° |
| 2026-04-25 08:31 | 33.91219 | -117.52082 | 2553 ft | 144 kts | 136° |
| 2026-04-25 08:31 | 33.90359 | -117.51482 | 2556 ft | 144 kts | 156° |
| 2026-04-25 08:31 | 33.89468 | -117.50947 | 2609 ft | 140 kts | 151° |
| 2026-04-25 08:32 | 33.88657 | -117.50386 | 2786 ft | 130 kts | 151° |
| 2026-04-25 08:32 | 33.87897 | -117.49852 | 2970 ft | 124 kts | 150° |
| 2026-04-25 08:32 | 33.87155 | -117.49328 | 3112 ft | 123 kts | 150° |
| 2026-04-25 08:32 | 33.86417 | -117.48806 | 3249 ft | 124 kts | 151° |
| 2026-04-25 08:33 | 33.85920 | -117.48455 | 3314 ft | 126 kts | 151° |
| 2026-04-25 08:33 | 33.85154 | -117.47916 | 3417 ft | 129 kts | 150° |
| 2026-04-25 08:33 | 33.84380 | -117.47368 | 3518 ft | 130 kts | 150° |
| 2026-04-25 08:33 | 33.83599 | -117.46815 | 3622 ft | 130 kts | 150° |
| 2026-04-25 08:34 | 33.82820 | -117.46262 | 3726 ft | 129 kts | 151° |
| 2026-04-25 08:34 | 33.82044 | -117.45713 | 3827 ft | 129 kts | 151° |
| 2026-04-25 08:34 | 33.81255 | -117.45153 | 3928 ft | 130 kts | 151° |
| 2026-04-25 08:34 | 33.80470 | -117.44597 | 4028 ft | 131 kts | 151° |
| 2026-04-25 08:35 | 33.79681 | -117.44040 | 4129 ft | 132 kts | 150° |
| 2026-04-25 08:35 | 33.78886 | -117.43476 | 4231 ft | 133 kts | 150° |
| 2026-04-25 08:35 | 33.78087 | -117.42912 | 4330 ft | 133 kts | 150° |
| 2026-04-25 08:35 | 33.77287 | -117.42346 | 4422 ft | 134 kts | 150° |
| 2026-04-25 08:36 | 33.76499 | -117.41754 | 4525 ft | 134 kts | 150° |
| 2026-04-25 08:36 | 33.75692 | -117.41204 | 4620 ft | 133 kts | 153° |
| 2026-04-25 08:36 | 33.74895 | -117.40640 | 4719 ft | 134 kts | 153° |
| 2026-04-25 08:36 | 33.74081 | -117.40077 | 4826 ft | 135 kts | 153° |
| 2026-04-25 08:37 | 33.73272 | -117.39483 | 4926 ft | 138 kts | 145° |
| 2026-04-25 08:37 | 33.72586 | -117.38651 | 4972 ft | 144 kts | 135° |
| 2026-04-25 08:37 | 33.71874 | -117.37777 | 4980 ft | 148 kts | 141° |
| 2026-04-25 08:37 | 33.71040 | -117.37038 | 4982 ft | 150 kts | 154° |
| 2026-04-25 08:38 | 33.70060 | -117.36672 | 4983 ft | 148 kts | 178° |
| 2026-04-25 08:38 | 33.69073 | -117.36897 | 4986 ft | 145 kts | 209° |
| 2026-04-25 08:38 | 33.68363 | -117.37717 | 4987 ft | 143 kts | 243° |
| 2026-04-25 08:38 | 33.68214 | -117.38870 | 4984 ft | 143 kts | 280° |
| 2026-04-25 08:39 | 33.68724 | -117.39878 | 4985 ft | 146 kts | 320° |
| 2026-04-25 08:39 | 33.69667 | -117.40301 | 4982 ft | 150 kts | 360° |
| 2026-04-25 08:39 | 33.70694 | -117.40339 | 4980 ft | 148 kts | 337° |
| 2026-04-25 08:39 | 33.71397 | -117.41163 | 4967 ft | 143 kts | 290° |
| 2026-04-25 08:40 | 33.71402 | -117.42331 | 4973 ft | 141 kts | 260° |
| 2026-04-25 08:40 | 33.71347 | -117.43508 | 4975 ft | 142 kts | 277° |
| 2026-04-25 08:40 | 33.71619 | -117.44655 | 4982 ft | 143 kts | 288° |
| 2026-04-25 08:40 | 33.71944 | -117.45786 | 4980 ft | 143 kts | 288° |
| 2026-04-25 08:41 | 33.72275 | -117.46920 | 4978 ft | 144 kts | 288° |
| 2026-04-25 08:41 | 33.72610 | -117.48056 | 4978 ft | 145 kts | 289° |
| 2026-04-25 08:41 | 33.72941 | -117.49185 | 4978 ft | 143 kts | 290° |
| 2026-04-25 08:41 | 33.73267 | -117.50294 | 4977 ft | 139 kts | 289° |
| 2026-04-25 08:42 | 33.73598 | -117.51398 | 4982 ft | 141 kts | 289° |
| 2026-04-25 08:42 | 33.73928 | -117.52516 | 4977 ft | 142 kts | 289° |
| 2026-04-25 08:42 | 33.74258 | -117.53645 | 4973 ft | 140 kts | 289° |
| 2026-04-25 08:42 | 33.74593 | -117.54766 | 4976 ft | 144 kts | 290° |
| 2026-04-25 08:43 | 33.74924 | -117.55897 | 4976 ft | 143 kts | 289° |
| 2026-04-25 08:43 | 33.75255 | -117.57029 | 4996 ft | 144 kts | 289° |
| 2026-04-25 08:43 | 33.75590 | -117.58167 | 4995 ft | 144 kts | 289° |
| 2026-04-25 08:43 | 33.75925 | -117.59303 | 4997 ft | 144 kts | 289° |
| 2026-04-25 08:44 | 33.76261 | -117.60444 | 5000 ft | 146 kts | 290° |
| 2026-04-25 08:44 | 33.76600 | -117.61591 | 5001 ft | 146 kts | 289° |
| 2026-04-25 08:44 | 33.76928 | -117.62741 | 4997 ft | 145 kts | 285° |
| 2026-04-25 08:44 | 33.76985 | -117.63951 | 4987 ft | 145 kts | 271° |
| 2026-04-25 08:45 | 33.77000 | -117.65163 | 4991 ft | 145 kts | 274° |
| 2026-04-25 08:45 | 33.77081 | -117.66371 | 4994 ft | 145 kts | 275° |
| 2026-04-25 08:45 | 33.77166 | -117.67585 | 4898 ft | 151 kts | 275° |
| 2026-04-25 08:45 | 33.77266 | -117.68932 | 4335 ft | 171 kts | 275° |
| 2026-04-25 08:46 | 33.77273 | -117.70279 | 3669 ft | 151 kts | 263° |
| 2026-04-25 08:46 | 33.77184 | -117.71448 | 3264 ft | 132 kts | 270° |
| 2026-04-25 08:46 | 33.77325 | -117.72484 | 2924 ft | 123 kts | 286° |
| 2026-04-25 08:46 | 33.77649 | -117.73434 | 2504 ft | 124 kts | 292° |
| 2026-04-25 08:47 | 33.77984 | -117.74323 | 2351 ft | 105 kts | 293° |
| 2026-04-25 08:47 | 33.78292 | -117.75130 | 2340 ft | 114 kts | 293° |
| 2026-04-25 08:47 | 33.78665 | -117.76046 | 2367 ft | 129 kts | 296° |
| 2026-04-25 08:47 | 33.79099 | -117.76996 | 2389 ft | 129 kts | 298° |
| 2026-04-25 08:48 | 33.79556 | -117.77923 | 2396 ft | 129 kts | 301° |
| 2026-04-25 08:48 | 33.80046 | -117.78821 | 2388 ft | 128 kts | 303° |
| 2026-04-25 08:48 | 33.80560 | -117.79694 | 2387 ft | 127 kts | 305° |
| 2026-04-25 08:48 | 33.81096 | -117.80538 | 2386 ft | 127 kts | 307° |
| 2026-04-25 08:49 | 33.81656 | -117.81359 | 2389 ft | 127 kts | 309° |
| 2026-04-25 08:49 | 33.82250 | -117.82167 | 2389 ft | 127 kts | 311° |
| 2026-04-25 08:49 | 33.82859 | -117.82938 | 2388 ft | 126 kts | 314° |
| 2026-04-25 08:49 | 33.83467 | -117.83663 | 2378 ft | 120 kts | 315° |
| 2026-04-25 08:50 | 33.84069 | -117.84345 | 2369 ft | 118 kts | 316° |
| 2026-04-25 08:50 | 33.84673 | -117.84996 | 2357 ft | 115 kts | 317° |
| 2026-04-25 08:50 | 33.85280 | -117.85621 | 2349 ft | 114 kts | 319° |
| 2026-04-25 08:50 | 33.85896 | -117.86225 | 2347 ft | 114 kts | 321° |
| 2026-04-25 08:51 | 33.86521 | -117.86809 | 2342 ft | 114 kts | 322° |
| 2026-04-25 08:51 | 33.87159 | -117.87375 | 2338 ft | 114 kts | 324° |
| 2026-04-25 08:51 | 33.87801 | -117.87924 | 2331 ft | 112 kts | 321° |
| 2026-04-25 08:51 | 33.88216 | -117.88703 | 2192 ft | 114 kts | 285° |
| 2026-04-25 08:52 | 33.88372 | -117.89649 | 2017 ft | 115 kts | 277° |
| 2026-04-25 08:52 | 33.88443 | -117.90572 | 1888 ft | 106 kts | 269° |
| 2026-04-25 08:52 | 33.88402 | -117.91447 | 1646 ft | 103 kts | 260° |
| 2026-04-25 08:52 | 33.88308 | -117.92154 | 1470 ft | 74 kts | 257° |
| 2026-04-25 08:53 | 33.88183 | -117.92755 | 1202 ft | 74 kts | 253° |
| 2026-04-25 08:53 | 33.88064 | -117.93344 | 976 ft | 69 kts | 257° |
| 2026-04-25 08:53 | 33.87979 | -117.93884 | 814 ft | 63 kts | 257° |
| 2026-04-25 08:53 | 33.87886 | -117.94409 | 688 ft | 67 kts | 255° |
| 2026-04-25 08:54 | 33.87783 | -117.94957 | 595 ft | 69 kts | 258° |
| 2026-04-25 08:54 | 33.87675 | -117.95522 | 487 ft | 70 kts | 255° |
| 2026-04-25 08:54 | 33.87561 | -117.96110 | 398 ft | 73 kts | 255° |
| 2026-04-25 08:54 | 33.87448 | -117.96705 | 289 ft | 74 kts | 255° |
| 2026-04-25 08:55 | 33.87338 | -117.97286 | 156 ft | 69 kts | 254° |
| 2026-04-25 08:55 | 33.87238 | -117.97803 | 104 ft | 56 kts | 256° |
| 2026-04-25 08:55 | 33.87170 | -117.98148 | 96 ft | 31 kts | 257° |
| 2026-04-25 08:55 | 33.87141 | -117.98326 | 90 ft | 13 kts | 288° |
| 2026-04-25 08:56 | 33.87196 | -117.98358 | 92 ft | 3 kts | 314° |
| 2026-04-25 08:56 | 33.87196 | -117.98363 | 90 ft | 0 kts | 251° |
| 2026-04-25 08:56 | 33.87192 | -117.98388 | 90 ft | 0 kts | 262° |
| 2026-04-25 09:00 | 33.87189 | -117.98419 | 90 ft | 11 kts | 263° |
| 2026-04-25 09:00 | 33.87192 | -117.98449 | 90 ft | 1 kts | 85° |
| 2026-04-25 09:00 | 33.87168 | -117.98441 | 89 ft | 8 kts | 215° |
| 2026-04-25 09:01 | 33.87115 | -117.98468 | 89 ft | 8 kts | 118° |
| 2026-04-25 09:01 | 33.87117 | -117.98431 | 89 ft | 0 kts | 77° |
| 2026-04-25 09:01 | 33.87151 | -117.98248 | 92 ft | 42 kts | 77° |
| 2026-04-25 09:02 | 33.87243 | -117.97764 | 114 ft | 73 kts | 78° |
| 2026-04-25 09:02 | 33.87364 | -117.97159 | 267 ft | 75 kts | 77° |
| 2026-04-25 09:02 | 33.87511 | -117.96568 | 462 ft | 71 kts | 72° |
| 2026-04-25 09:02 | 33.87679 | -117.95997 | 619 ft | 73 kts | 76° |
| 2026-04-25 09:03 | 33.87484 | -117.95450 | 664 ft | 89 kts | 156° |
| 2026-04-25 09:03 | 33.86864 | -117.95615 | 770 ft | 98 kts | 224° |
| 2026-04-25 09:03 | 33.86467 | -117.96343 | 836 ft | 110 kts | 239° |
| 2026-04-25 09:03 | 33.86048 | -117.97148 | 913 ft | 116 kts | 239° |
| 2026-04-25 09:04 | 33.85735 | -117.98058 | 991 ft | 120 kts | 251° |
| 2026-04-25 09:04 | 33.85570 | -117.99089 | 921 ft | 129 kts | 261° |
| 2026-04-25 09:04 | 33.85473 | -118.00117 | 983 ft | 110 kts | 280° |
| 2026-04-25 09:04 | 33.86006 | -118.00550 | 1035 ft | 108 kts | 8° |
| 2026-04-25 09:05 | 33.86559 | -118.00252 | 762 ft | 82 kts | 43° |
| 2026-04-25 09:05 | 33.86801 | -117.99905 | 539 ft | 79 kts | 59° |
| 2026-04-25 09:05 | 33.86968 | -117.99310 | 294 ft | 71 kts | 81° |
| 2026-04-25 09:05 | 33.87062 | -117.98727 | 169 ft | 73 kts | 77° |
| 2026-04-25 09:06 | 33.87165 | -117.98174 | 95 ft | 57 kts | 75° |
| 2026-04-25 09:06 | 33.87255 | -117.97688 | 125 ft | 62 kts | 80° |
| 2026-04-25 09:06 | 33.87348 | -117.97185 | 172 ft | 61 kts | 81° |
| 2026-04-25 09:06 | 33.87404 | -117.96689 | 221 ft | 59 kts | 85° |
| 2026-04-25 09:07 | 33.87436 | -117.96198 | 270 ft | 55 kts | 86° |
| 2026-04-25 09:07 | 33.87469 | -117.95678 | 268 ft | 67 kts | 91° |
| 2026-04-25 09:07 | 33.87181 | -117.95258 | 309 ft | 81 kts | 158° |
| 2026-04-25 09:07 | 33.86619 | -117.95228 | 493 ft | 82 kts | 213° |
| 2026-04-25 09:08 | 33.86233 | -117.95848 | 470 ft | 109 kts | 236° |
| 2026-04-25 09:08 | 33.85865 | -117.96660 | 651 ft | 111 kts | 242° |
| 2026-04-25 09:08 | 33.85571 | -117.97533 | 767 ft | 116 kts | 256° |
| 2026-04-25 09:08 | 33.85413 | -117.98516 | 864 ft | 121 kts | 260° |
| 2026-04-25 09:09 | 33.85493 | -117.99433 | 1000 ft | 105 kts | 314° |
| 2026-04-25 09:09 | 33.86140 | -117.99636 | 761 ft | 88 kts | 9° |
| 2026-04-25 09:09 | 33.86671 | -117.99438 | 510 ft | 77 kts | 31° |
| 2026-04-25 09:09 | 33.87023 | -117.98947 | 293 ft | 79 kts | 67° |
| 2026-04-25 09:10 | 33.87133 | -117.98338 | 92 ft | 67 kts | 76° |
| 2026-04-25 09:10 | 33.87227 | -117.97774 | 138 ft | 75 kts | 81° |
| 2026-04-25 09:10 | 33.87310 | -117.97134 | 288 ft | 78 kts | 92° |
| 2026-04-25 09:10 | 33.86986 | -117.96703 | 449 ft | 80 kts | 173° |
| 2026-04-25 09:11 | 33.86191 | -117.97585 | 595 ft | 108 kts | 261° |
| 2026-04-25 09:11 | 33.86131 | -117.98544 | 574 ft | 122 kts | 264° |
| 2026-04-25 09:11 | 33.86143 | -117.99461 | 643 ft | 92 kts | 309° |
| 2026-04-25 09:12 | 33.86702 | -117.99481 | 473 ft | 82 kts | 37° |
| 2026-04-25 09:12 | 33.87008 | -117.98944 | 229 ft | 75 kts | 69° |
| 2026-04-25 09:12 | 33.87129 | -117.98372 | 93 ft | 66 kts | 78° |
| 2026-04-25 09:12 | 33.87223 | -117.97854 | 111 ft | 68 kts | 79° |
| 2026-04-25 09:13 | 33.87329 | -117.97279 | 223 ft | 71 kts | 80° |
| 2026-04-25 09:13 | 33.87328 | -117.96738 | 376 ft | 64 kts | 132° |
| 2026-04-25 09:13 | 33.86862 | -117.96533 | 419 ft | 76 kts | 174° |
| 2026-04-25 09:13 | 33.86379 | -117.96767 | 516 ft | 85 kts | 228° |
| 2026-04-25 09:14 | 33.86110 | -117.97485 | 571 ft | 102 kts | 252° |
| 2026-04-25 09:14 | 33.85977 | -117.98378 | 585 ft | 114 kts | 265° |
| 2026-04-25 09:14 | 33.85940 | -117.99322 | 660 ft | 100 kts | 280° |
| 2026-04-25 09:14 | 33.86378 | -117.99503 | 540 ft | 79 kts | 17° |
| 2026-04-25 09:15 | 33.86827 | -117.99188 | 365 ft | 73 kts | 42° |
| 2026-04-25 09:15 | 33.87080 | -117.98655 | 165 ft | 75 kts | 79° |
| 2026-04-25 09:15 | 33.87181 | -117.98097 | 97 ft | 56 kts | 77° |
| 2026-04-25 09:15 | 33.87239 | -117.97791 | 104 ft | 24 kts | 76° |
| 2026-04-25 09:16 | 33.87265 | -117.97660 | 105 ft | 13 kts | 77° |
| 2026-04-25 09:16 | 33.87288 | -117.97544 | 105 ft | 10 kts | 76° |
| 2026-04-25 09:16 | 33.87258 | -117.97487 | 108 ft | 13 kts | 216° |
| 2026-04-25 09:16 | 33.87226 | -117.97609 | 108 ft | 16 kts | 272° |
| 2026-04-25 09:17 | 33.87235 | -117.97776 | 104 ft | 8 kts | 296° |
| 2026-04-25 09:17 | 33.87221 | -117.97884 | 101 ft | 20 kts | 258° |
| 2026-04-25 09:17 | 33.87186 | -117.98065 | 98 ft | 20 kts | 259° |
| 2026-04-25 09:18 | 33.87210 | -117.98156 | 96 ft | 8 kts | 275° |
| 2026-04-25 09:18 | 33.87199 | -117.98222 | 94 ft | 11 kts | 256° |
| 2026-04-25 09:18 | 33.87178 | -117.98339 | 90 ft | 12 kts | 279° |
| 2026-04-25 09:18 | 33.87208 | -117.98366 | 90 ft | 2 kts | 232° |
| 2026-04-25 09:19 | 33.87201 | -117.98385 | 91 ft | 4 kts | 271° |
| 2026-04-25 09:19 | 33.87201 | -117.98405 | 91 ft | 0 kts | 270° |